sensor_id;sensor_type;location;lat;lon;timestamp;temperature;humidity
60717;DHT22;46566;52.700;6.192;2023-02-28T00:00:30;4.10;99.90
60717;DHT22;46566;52.700;6.192;2023-02-28T00:02:56;4.10;99.90
60717;DHT22;46566;52.700;6.192;2023-02-28T00:05:23;4.10;99.90
60717;DHT22;46566;52.700;6.192;2023-02-28T00:07:50;4.20;99.90
60717;DHT22;46566;52.700;6.192;2023-02-28T00:10:21;4.20;99.90
60717;DHT22;46566;52.700;6.192;2023-02-28T00:12:52;4.20;99.90
60717;DHT22;46566;52.700;6.192;2023-02-28T00:15:19;4.20;99.90
60717;DHT22;46566;52.700;6.192;2023-02-28T00:17:44;4.20;99.90
60717;DHT22;46566;52.700;6.192;2023-02-28T00:20:11;4.20;99.90
60717;DHT22;46566;52.700;6.192;2023-02-28T00:22:43;4.20;99.90
60717;DHT22;46566;52.700;6.192;2023-02-28T00:25:11;4.20;99.90
60717;DHT22;46566;52.700;6.192;2023-02-28T00:27:37;4.20;99.90
60717;DHT22;46566;52.700;6.192;2023-02-28T00:30:05;4.20;99.90
60717;DHT22;46566;52.700;6.192;2023-02-28T00:32:31;4.20;99.90
60717;DHT22;46566;52.700;6.192;2023-02-28T00:34:56;4.20;99.90
60717;DHT22;46566;52.700;6.192;2023-02-28T00:37:22;4.20;99.90
60717;DHT22;46566;52.700;6.192;2023-02-28T00:39:48;4.20;99.90
60717;DHT22;46566;52.700;6.192;2023-02-28T00:42:15;4.20;99.90
60717;DHT22;46566;52.700;6.192;2023-02-28T00:44:41;4.20;99.90
60717;DHT22;46566;52.700;6.192;2023-02-28T00:47:06;4.20;99.90
60717;DHT22;46566;52.700;6.192;2023-02-28T00:49:32;4.20;99.90
60717;DHT22;46566;52.700;6.192;2023-02-28T00:51:58;4.20;99.90
60717;DHT22;46566;52.700;6.192;2023-02-28T00:54:25;4.20;99.90
60717;DHT22;46566;52.700;6.192;2023-02-28T00:56:51;4.20;99.90
60717;DHT22;46566;52.700;6.192;2023-02-28T00:59:18;4.20;99.90
60717;DHT22;46566;52.700;6.192;2023-02-28T01:01:45;4.20;99.90
60717;DHT22;46566;52.700;6.192;2023-02-28T01:04:11;4.20;99.90
60717;DHT22;46566;52.700;6.192;2023-02-28T01:06:37;4.30;99.90
60717;DHT22;46566;52.700;6.192;2023-02-28T01:09:04;4.20;99.90
60717;DHT22;46566;52.700;6.192;2023-02-28T01:11:30;4.30;99.90
60717;DHT22;46566;52.700;6.192;2023-02-28T01:13:56;4.30;99.90
60717;DHT22;46566;52.700;6.192;2023-02-28T01:16:22;4.30;99.90
60717;DHT22;46566;52.700;6.192;2023-02-28T01:18:48;4.30;99.90
60717;DHT22;46566;52.700;6.192;2023-02-28T01:21:16;4.30;99.90
60717;DHT22;46566;52.700;6.192;2023-02-28T01:23:41;4.30;99.90
60717;DHT22;46566;52.700;6.192;2023-02-28T01:26:11;4.20;99.90
60717;DHT22;46566;52.700;6.192;2023-02-28T01:28:39;4.30;99.90
60717;DHT22;46566;52.700;6.192;2023-02-28T01:31:05;4.20;99.90
60717;DHT22;46566;52.700;6.192;2023-02-28T01:33:32;4.20;99.90
60717;DHT22;46566;52.700;6.192;2023-02-28T01:36:06;4.20;99.90
60717;DHT22;46566;52.700;6.192;2023-02-28T01:38:33;4.20;99.90
60717;DHT22;46566;52.700;6.192;2023-02-28T01:40:59;4.20;99.90
60717;DHT22;46566;52.700;6.192;2023-02-28T01:43:31;4.30;99.90
60717;DHT22;46566;52.700;6.192;2023-02-28T01:45:58;4.30;99.90
60717;DHT22;46566;52.700;6.192;2023-02-28T01:48:30;4.30;99.90
60717;DHT22;46566;52.700;6.192;2023-02-28T01:51:00;4.30;99.90
60717;DHT22;46566;52.700;6.192;2023-02-28T01:53:42;4.30;99.90
60717;DHT22;46566;52.700;6.192;2023-02-28T01:56:11;4.30;99.90
60717;DHT22;46566;52.700;6.192;2023-02-28T01:58:37;4.30;99.90
60717;DHT22;46566;52.700;6.192;2023-02-28T02:01:03;4.30;99.90
60717;DHT22;46566;52.700;6.192;2023-02-28T02:03:30;4.30;99.90
60717;DHT22;46566;52.700;6.192;2023-02-28T02:05:56;4.30;99.90
60717;DHT22;46566;52.700;6.192;2023-02-28T02:08:26;4.30;99.90
60717;DHT22;46566;52.700;6.192;2023-02-28T02:11:00;4.30;99.90
60717;DHT22;46566;52.700;6.192;2023-02-28T02:13:40;4.30;99.90
60717;DHT22;46566;52.700;6.192;2023-02-28T02:18:52;4.40;99.90
60717;DHT22;46566;52.700;6.192;2023-02-28T02:27:34;4.30;99.90
60717;DHT22;46566;52.700;6.192;2023-02-28T02:30:37;4.30;99.90
60717;DHT22;46566;52.700;6.192;2023-02-28T02:33:23;4.20;99.90
60717;DHT22;46566;52.700;6.192;2023-02-28T02:35:59;4.20;99.90
60717;DHT22;46566;52.700;6.192;2023-02-28T02:38:39;4.20;99.90
60717;DHT22;46566;52.700;6.192;2023-02-28T02:41:19;4.20;99.90
60717;DHT22;46566;52.700;6.192;2023-02-28T02:43:52;4.10;99.90
60717;DHT22;46566;52.700;6.192;2023-02-28T02:46:31;4.10;99.90
60717;DHT22;46566;52.700;6.192;2023-02-28T02:49:00;4.10;99.90
60717;DHT22;46566;52.700;6.192;2023-02-28T02:51:28;4.00;99.90
60717;DHT22;46566;52.700;6.192;2023-02-28T02:54:27;4.00;99.90
60717;DHT22;46566;52.700;6.192;2023-02-28T02:56:57;4.00;99.90
60717;DHT22;46566;52.700;6.192;2023-02-28T02:59:25;4.00;99.90
60717;DHT22;46566;52.700;6.192;2023-02-28T03:01:57;4.00;99.90
60717;DHT22;46566;52.700;6.192;2023-02-28T03:04:25;4.00;99.90
60717;DHT22;46566;52.700;6.192;2023-02-28T03:06:52;3.90;99.90
60717;DHT22;46566;52.700;6.192;2023-02-28T03:09:25;3.90;99.90
60717;DHT22;46566;52.700;6.192;2023-02-28T03:11:54;3.90;99.90
60717;DHT22;46566;52.700;6.192;2023-02-28T03:17:02;3.80;99.90
60717;DHT22;46566;52.700;6.192;2023-02-28T03:19:55;3.70;99.90
60717;DHT22;46566;52.700;6.192;2023-02-28T03:22:40;3.70;99.90
60717;DHT22;46566;52.700;6.192;2023-02-28T03:30:28;3.50;99.90
60717;DHT22;46566;52.700;6.192;2023-02-28T03:33:10;3.40;99.90
60717;DHT22;46566;52.700;6.192;2023-02-28T03:35:42;3.30;99.90
60717;DHT22;46566;52.700;6.192;2023-02-28T03:38:24;3.30;99.90
60717;DHT22;46566;52.700;6.192;2023-02-28T03:41:00;3.30;99.90
60717;DHT22;46566;52.700;6.192;2023-02-28T03:43:31;3.30;99.90
60717;DHT22;46566;52.700;6.192;2023-02-28T03:46:02;3.30;99.90
60717;DHT22;46566;52.700;6.192;2023-02-28T03:48:44;3.20;99.90
60717;DHT22;46566;52.700;6.192;2023-02-28T03:51:14;3.20;99.90
60717;DHT22;46566;52.700;6.192;2023-02-28T03:53:45;3.20;99.90
60717;DHT22;46566;52.700;6.192;2023-02-28T03:56:18;3.20;99.90
60717;DHT22;46566;52.700;6.192;2023-02-28T03:59:06;3.20;99.90
60717;DHT22;46566;52.700;6.192;2023-02-28T04:01:45;3.10;99.90
60717;DHT22;46566;52.700;6.192;2023-02-28T04:04:12;3.10;99.90
60717;DHT22;46566;52.700;6.192;2023-02-28T04:06:39;3.10;99.90
60717;DHT22;46566;52.700;6.192;2023-02-28T04:09:07;3.10;99.90
60717;DHT22;46566;52.700;6.192;2023-02-28T04:11:39;3.00;99.90
60717;DHT22;46566;52.700;6.192;2023-02-28T04:14:06;3.10;99.90
60717;DHT22;46566;52.700;6.192;2023-02-28T04:16:35;3.00;99.90
60717;DHT22;46566;52.700;6.192;2023-02-28T04:19:03;3.00;99.90
60717;DHT22;46566;52.700;6.192;2023-02-28T04:21:36;3.00;99.90
60717;DHT22;46566;52.700;6.192;2023-02-28T04:24:03;3.00;99.90
60717;DHT22;46566;52.700;6.192;2023-02-28T04:26:36;3.00;99.90
60717;DHT22;46566;52.700;6.192;2023-02-28T04:29:04;3.00;99.90
60717;DHT22;46566;52.700;6.192;2023-02-28T04:31:30;3.00;99.90
60717;DHT22;46566;52.700;6.192;2023-02-28T04:33:56;3.00;99.90
60717;DHT22;46566;52.700;6.192;2023-02-28T04:36:22;3.00;99.90
60717;DHT22;46566;52.700;6.192;2023-02-28T04:38:48;2.90;99.90
60717;DHT22;46566;52.700;6.192;2023-02-28T04:41:15;2.90;99.90
60717;DHT22;46566;52.700;6.192;2023-02-28T04:43:41;2.90;99.90
60717;DHT22;46566;52.700;6.192;2023-02-28T04:46:07;2.90;99.90
60717;DHT22;46566;52.700;6.192;2023-02-28T04:48:35;2.90;99.90
60717;DHT22;46566;52.700;6.192;2023-02-28T04:51:07;2.90;99.90
60717;DHT22;46566;52.700;6.192;2023-02-28T04:53:33;2.90;99.90
60717;DHT22;46566;52.700;6.192;2023-02-28T04:56:00;2.90;99.90
60717;DHT22;46566;52.700;6.192;2023-02-28T04:58:26;2.80;99.90
60717;DHT22;46566;52.700;6.192;2023-02-28T05:00:52;2.80;99.90
60717;DHT22;46566;52.700;6.192;2023-02-28T05:03:18;2.80;99.90
60717;DHT22;46566;52.700;6.192;2023-02-28T05:05:44;2.80;99.90
60717;DHT22;46566;52.700;6.192;2023-02-28T05:08:10;2.80;99.90
60717;DHT22;46566;52.700;6.192;2023-02-28T05:10:36;2.70;99.90
60717;DHT22;46566;52.700;6.192;2023-02-28T05:13:05;2.70;99.90
60717;DHT22;46566;52.700;6.192;2023-02-28T05:15:31;2.70;99.90
60717;DHT22;46566;52.700;6.192;2023-02-28T05:17:56;2.70;99.90
60717;DHT22;46566;52.700;6.192;2023-02-28T05:20:22;2.70;99.90
60717;DHT22;46566;52.700;6.192;2023-02-28T05:22:49;2.70;99.90
60717;DHT22;46566;52.700;6.192;2023-02-28T05:25:19;2.70;99.90
60717;DHT22;46566;52.700;6.192;2023-02-28T05:27:45;2.70;99.90
60717;DHT22;46566;52.700;6.192;2023-02-28T05:30:11;2.70;99.90
60717;DHT22;46566;52.700;6.192;2023-02-28T05:32:38;2.70;99.90
60717;DHT22;46566;52.700;6.192;2023-02-28T05:35:04;2.70;99.90
60717;DHT22;46566;52.700;6.192;2023-02-28T05:37:30;2.60;99.90
60717;DHT22;46566;52.700;6.192;2023-02-28T05:39:56;2.60;99.90
60717;DHT22;46566;52.700;6.192;2023-02-28T05:42:21;2.70;99.90
60717;DHT22;46566;52.700;6.192;2023-02-28T05:44:47;2.70;99.90
60717;DHT22;46566;52.700;6.192;2023-02-28T05:47:13;2.60;99.90
60717;DHT22;46566;52.700;6.192;2023-02-28T05:49:41;2.60;99.90
60717;DHT22;46566;52.700;6.192;2023-02-28T05:52:07;2.60;99.90
60717;DHT22;46566;52.700;6.192;2023-02-28T05:54:33;2.60;99.90
60717;DHT22;46566;52.700;6.192;2023-02-28T05:56:58;2.60;99.90
60717;DHT22;46566;52.700;6.192;2023-02-28T05:59:24;2.50;99.90
60717;DHT22;46566;52.700;6.192;2023-02-28T06:01:50;2.50;99.90
60717;DHT22;46566;52.700;6.192;2023-02-28T06:04:17;2.50;99.90
60717;DHT22;46566;52.700;6.192;2023-02-28T06:06:45;2.50;99.90
60717;DHT22;46566;52.700;6.192;2023-02-28T06:09:11;2.50;99.90
60717;DHT22;46566;52.700;6.192;2023-02-28T06:11:37;2.40;99.90
60717;DHT22;46566;52.700;6.192;2023-02-28T06:14:04;2.40;99.90
60717;DHT22;46566;52.700;6.192;2023-02-28T06:16:31;2.40;99.90
60717;DHT22;46566;52.700;6.192;2023-02-28T06:18:59;2.40;99.90
60717;DHT22;46566;52.700;6.192;2023-02-28T06:21:26;2.30;99.90
60717;DHT22;46566;52.700;6.192;2023-02-28T06:23:52;2.40;99.90
60717;DHT22;46566;52.700;6.192;2023-02-28T06:26:19;2.40;99.90
60717;DHT22;46566;52.700;6.192;2023-02-28T06:28:44;2.40;99.90
60717;DHT22;46566;52.700;6.192;2023-02-28T06:31:12;2.40;99.90
60717;DHT22;46566;52.700;6.192;2023-02-28T06:33:39;2.40;99.90
60717;DHT22;46566;52.700;6.192;2023-02-28T06:36:05;2.50;99.90
60717;DHT22;46566;52.700;6.192;2023-02-28T06:38:32;2.50;99.90
60717;DHT22;46566;52.700;6.192;2023-02-28T06:40:59;2.50;99.90
60717;DHT22;46566;52.700;6.192;2023-02-28T06:43:27;2.40;99.90
60717;DHT22;46566;52.700;6.192;2023-02-28T06:45:58;2.40;99.90
60717;DHT22;46566;52.700;6.192;2023-02-28T06:48:25;2.50;99.90
60717;DHT22;46566;52.700;6.192;2023-02-28T06:50:51;2.50;99.90
60717;DHT22;46566;52.700;6.192;2023-02-28T06:53:16;2.60;99.90
60717;DHT22;46566;52.700;6.192;2023-02-28T06:55:42;2.60;99.90
60717;DHT22;46566;52.700;6.192;2023-02-28T06:58:08;2.60;99.90
60717;DHT22;46566;52.700;6.192;2023-02-28T07:00:44;2.60;99.90
60717;DHT22;46566;52.700;6.192;2023-02-28T07:03:11;2.60;99.90
60717;DHT22;46566;52.700;6.192;2023-02-28T07:05:38;2.60;99.90
60717;DHT22;46566;52.700;6.192;2023-02-28T07:08:08;2.60;99.90
60717;DHT22;46566;52.700;6.192;2023-02-28T07:10:33;2.60;99.90
60717;DHT22;46566;52.700;6.192;2023-02-28T07:13:00;2.60;99.90
60717;DHT22;46566;52.700;6.192;2023-02-28T07:15:26;2.70;99.90
60717;DHT22;46566;52.700;6.192;2023-02-28T07:17:51;2.70;99.90
60717;DHT22;46566;52.700;6.192;2023-02-28T07:20:17;2.70;99.90
60717;DHT22;46566;52.700;6.192;2023-02-28T07:22:43;2.70;99.90
60717;DHT22;46566;52.700;6.192;2023-02-28T07:25:09;2.70;99.90
60717;DHT22;46566;52.700;6.192;2023-02-28T07:27:34;2.70;99.90
60717;DHT22;46566;52.700;6.192;2023-02-28T07:30:00;2.80;99.90
60717;DHT22;46566;52.700;6.192;2023-02-28T07:32:29;2.80;99.90
60717;DHT22;46566;52.700;6.192;2023-02-28T07:34:54;2.80;99.90
60717;DHT22;46566;52.700;6.192;2023-02-28T07:37:21;2.80;99.90
60717;DHT22;46566;52.700;6.192;2023-02-28T07:39:47;2.80;99.90
60717;DHT22;46566;52.700;6.192;2023-02-28T07:42:13;2.80;99.90
60717;DHT22;46566;52.700;6.192;2023-02-28T07:44:39;2.90;99.90
60717;DHT22;46566;52.700;6.192;2023-02-28T07:47:09;2.90;99.90
60717;DHT22;46566;52.700;6.192;2023-02-28T07:49:38;2.90;99.90
60717;DHT22;46566;52.700;6.192;2023-02-28T07:52:05;2.90;99.90
60717;DHT22;46566;52.700;6.192;2023-02-28T07:54:32;2.90;99.90
60717;DHT22;46566;52.700;6.192;2023-02-28T07:56:59;2.90;99.90
60717;DHT22;46566;52.700;6.192;2023-02-28T07:59:24;2.90;99.90
60717;DHT22;46566;52.700;6.192;2023-02-28T08:01:50;2.90;99.90
60717;DHT22;46566;52.700;6.192;2023-02-28T08:04:19;3.00;99.90
60717;DHT22;46566;52.700;6.192;2023-02-28T08:06:45;3.00;99.90
60717;DHT22;46566;52.700;6.192;2023-02-28T08:09:11;2.90;99.90
60717;DHT22;46566;52.700;6.192;2023-02-28T08:11:37;3.00;99.90
60717;DHT22;46566;52.700;6.192;2023-02-28T08:14:03;3.00;99.90
60717;DHT22;46566;52.700;6.192;2023-02-28T08:16:28;3.00;99.90
60717;DHT22;46566;52.700;6.192;2023-02-28T08:18:54;3.10;99.90
60717;DHT22;46566;52.700;6.192;2023-02-28T08:21:20;3.10;99.90
60717;DHT22;46566;52.700;6.192;2023-02-28T08:23:48;3.10;99.90
60717;DHT22;46566;52.700;6.192;2023-02-28T08:26:15;3.20;99.90
60717;DHT22;46566;52.700;6.192;2023-02-28T08:28:41;3.20;99.90
60717;DHT22;46566;52.700;6.192;2023-02-28T08:31:11;3.30;99.90
60717;DHT22;46566;52.700;6.192;2023-02-28T08:33:39;3.30;99.90
60717;DHT22;46566;52.700;6.192;2023-02-28T08:36:07;3.40;99.90
60717;DHT22;46566;52.700;6.192;2023-02-28T08:38:33;3.40;99.90
60717;DHT22;46566;52.700;6.192;2023-02-28T08:41:00;3.40;99.90
60717;DHT22;46566;52.700;6.192;2023-02-28T08:43:27;3.50;99.90
60717;DHT22;46566;52.700;6.192;2023-02-28T08:45:54;3.60;99.90
60717;DHT22;46566;52.700;6.192;2023-02-28T13:22:53;12.50;56.40
60717;DHT22;46566;52.700;6.192;2023-02-28T13:28:13;12.80;55.80
60717;DHT22;46566;52.700;6.192;2023-02-28T13:31:00;12.80;58.20
60717;DHT22;46566;52.700;6.192;2023-02-28T13:34:05;12.90;55.30
60717;DHT22;46566;52.700;6.192;2023-02-28T13:36:32;12.80;55.10
60717;DHT22;46566;52.700;6.192;2023-02-28T13:38:59;12.80;55.90
60717;DHT22;46566;52.700;6.192;2023-02-28T13:41:45;12.80;56.20
60717;DHT22;46566;52.700;6.192;2023-02-28T13:44:23;12.90;60.10
60717;DHT22;46566;52.700;6.192;2023-02-28T13:49:50;12.40;57.40
60717;DHT22;46566;52.700;6.192;2023-02-28T13:52:20;12.00;57.40
60717;DHT22;46566;52.700;6.192;2023-02-28T13:55:15;11.80;56.90
60717;DHT22;46566;52.700;6.192;2023-02-28T13:57:57;11.60;60.00
60717;DHT22;46566;52.700;6.192;2023-02-28T14:06:30;11.70;59.90
60717;DHT22;46566;52.700;6.192;2023-02-28T14:09:06;11.70;57.50
60717;DHT22;46566;52.700;6.192;2023-02-28T14:14:55;11.50;57.90
60717;DHT22;46566;52.700;6.192;2023-02-28T14:17:45;11.40;57.70
60717;DHT22;46566;52.700;6.192;2023-02-28T14:20:16;11.30;57.30
60717;DHT22;46566;52.700;6.192;2023-02-28T14:25:55;11.20;63.30
60717;DHT22;46566;52.700;6.192;2023-02-28T14:31:29;11.00;61.90
60717;DHT22;46566;52.700;6.192;2023-02-28T14:36:58;10.60;60.20
60717;DHT22;46566;52.700;6.192;2023-02-28T14:39:27;10.40;58.40
60717;DHT22;46566;52.700;6.192;2023-02-28T14:41:57;10.20;61.20
60717;DHT22;46566;52.700;6.192;2023-02-28T14:44:55;10.00;61.20
60717;DHT22;46566;52.700;6.192;2023-02-28T14:47:28;9.80;61.20
60717;DHT22;46566;52.700;6.192;2023-02-28T14:49:57;9.70;61.60
60717;DHT22;46566;52.700;6.192;2023-02-28T14:52:55;9.80;63.30
60717;DHT22;46566;52.700;6.192;2023-02-28T14:55:26;9.80;64.00
60717;DHT22;46566;52.700;6.192;2023-02-28T14:58:29;9.80;65.30
60717;DHT22;46566;52.700;6.192;2023-02-28T15:00:58;9.70;64.60
60717;DHT22;46566;52.700;6.192;2023-02-28T15:06:15;9.40;63.10
60717;DHT22;46566;52.700;6.192;2023-02-28T15:20:52;8.70;61.70
60717;DHT22;46566;52.700;6.192;2023-02-28T15:23:19;8.60;63.60
60717;DHT22;46566;52.700;6.192;2023-02-28T15:25:46;8.50;62.60
60717;DHT22;46566;52.700;6.192;2023-02-28T15:28:16;8.40;63.20
60717;DHT22;46566;52.700;6.192;2023-02-28T15:31:02;8.40;62.30
60717;DHT22;46566;52.700;6.192;2023-02-28T15:33:30;8.40;63.20
60717;DHT22;46566;52.700;6.192;2023-02-28T15:36:33;8.20;63.00
60717;DHT22;46566;52.700;6.192;2023-02-28T15:39:20;8.20;62.80
60717;DHT22;46566;52.700;6.192;2023-02-28T15:41:46;8.10;64.80
60717;DHT22;46566;52.700;6.192;2023-02-28T15:44:28;8.10;65.70
60717;DHT22;46566;52.700;6.192;2023-02-28T15:47:05;8.10;65.80
60717;DHT22;46566;52.700;6.192;2023-02-28T15:50:01;8.10;66.00
60717;DHT22;46566;52.700;6.192;2023-02-28T15:52:37;8.00;65.20
60717;DHT22;46566;52.700;6.192;2023-02-28T15:55:39;7.90;66.30
60717;DHT22;46566;52.700;6.192;2023-02-28T15:58:05;7.90;66.20
60717;DHT22;46566;52.700;6.192;2023-02-28T16:00:31;7.80;66.70
60717;DHT22;46566;52.700;6.192;2023-02-28T16:03:00;7.80;66.50
60717;DHT22;46566;52.700;6.192;2023-02-28T16:05:45;7.80;68.60
60717;DHT22;46566;52.700;6.192;2023-02-28T16:08:14;7.80;68.60
60717;DHT22;46566;52.700;6.192;2023-02-28T16:10:40;7.90;71.20
60717;DHT22;46566;52.700;6.192;2023-02-28T16:13:08;7.80;69.80
60717;DHT22;46566;52.700;6.192;2023-02-28T16:18:41;7.70;69.30
60717;DHT22;46566;52.700;6.192;2023-02-28T16:33:03;7.40;78.90
60717;DHT22;46566;52.700;6.192;2023-02-28T16:35:29;7.40;84.60
60717;DHT22;46566;52.700;6.192;2023-02-28T16:37:54;7.40;90.20
60717;DHT22;46566;52.700;6.192;2023-02-28T16:48:44;7.40;99.90
60717;DHT22;46566;52.700;6.192;2023-02-28T16:51:15;7.40;99.90
60717;DHT22;46566;52.700;6.192;2023-02-28T16:53:41;7.30;99.90
60717;DHT22;46566;52.700;6.192;2023-02-28T16:59:23;7.20;99.90
60717;DHT22;46566;52.700;6.192;2023-02-28T17:02:15;7.10;99.90
60717;DHT22;46566;52.700;6.192;2023-02-28T17:04:41;7.10;99.90
60717;DHT22;46566;52.700;6.192;2023-02-28T17:07:15;7.00;99.90
60717;DHT22;46566;52.700;6.192;2023-02-28T17:10:14;7.00;99.90
60717;DHT22;46566;52.700;6.192;2023-02-28T17:12:40;6.90;99.90
60717;DHT22;46566;52.700;6.192;2023-02-28T17:15:07;6.90;99.90
60717;DHT22;46566;52.700;6.192;2023-02-28T17:17:51;6.80;99.90
60717;DHT22;46566;52.700;6.192;2023-02-28T17:20:22;6.80;99.90
60717;DHT22;46566;52.700;6.192;2023-02-28T17:25:39;6.80;99.90
60717;DHT22;46566;52.700;6.192;2023-02-28T17:28:05;6.70;99.90
60717;DHT22;46566;52.700;6.192;2023-02-28T17:30:33;6.70;99.90
60717;DHT22;46566;52.700;6.192;2023-02-28T17:32:59;6.60;99.90
60717;DHT22;46566;52.700;6.192;2023-02-28T17:35:25;6.60;99.90
60717;DHT22;46566;52.700;6.192;2023-02-28T17:37:52;6.60;99.90
60717;DHT22;46566;52.700;6.192;2023-02-28T17:40:20;6.50;99.90
60717;DHT22;46566;52.700;6.192;2023-02-28T17:42:46;6.40;99.90
60717;DHT22;46566;52.700;6.192;2023-02-28T17:45:13;6.40;99.90
60717;DHT22;46566;52.700;6.192;2023-02-28T17:47:39;6.40;99.90
60717;DHT22;46566;52.700;6.192;2023-02-28T17:50:06;6.30;99.90
60717;DHT22;46566;52.700;6.192;2023-02-28T17:52:32;6.20;99.90
60717;DHT22;46566;52.700;6.192;2023-02-28T17:55:03;6.20;99.90
60717;DHT22;46566;52.700;6.192;2023-02-28T17:57:29;6.10;99.90
60717;DHT22;46566;52.700;6.192;2023-02-28T17:59:55;6.10;99.90
60717;DHT22;46566;52.700;6.192;2023-02-28T18:02:20;6.10;99.90
60717;DHT22;46566;52.700;6.192;2023-02-28T18:04:46;6.00;99.90
60717;DHT22;46566;52.700;6.192;2023-02-28T18:07:15;6.00;99.90
60717;DHT22;46566;52.700;6.192;2023-02-28T18:09:41;5.90;99.90
60717;DHT22;46566;52.700;6.192;2023-02-28T18:12:07;5.90;99.90
60717;DHT22;46566;52.700;6.192;2023-02-28T18:14:33;5.80;99.90
60717;DHT22;46566;52.700;6.192;2023-02-28T18:16:58;5.80;99.90
60717;DHT22;46566;52.700;6.192;2023-02-28T18:19:24;5.70;99.90
60717;DHT22;46566;52.700;6.192;2023-02-28T18:21:52;5.70;99.90
60717;DHT22;46566;52.700;6.192;2023-02-28T18:24:19;5.70;99.90
60717;DHT22;46566;52.700;6.192;2023-02-28T18:26:45;5.60;99.90
60717;DHT22;46566;52.700;6.192;2023-02-28T18:29:17;5.60;99.90
60717;DHT22;46566;52.700;6.192;2023-02-28T18:31:43;5.50;99.90
60717;DHT22;46566;52.700;6.192;2023-02-28T18:34:09;5.50;99.90
60717;DHT22;46566;52.700;6.192;2023-02-28T18:36:35;5.50;99.90
60717;DHT22;46566;52.700;6.192;2023-02-28T18:39:01;5.40;99.90
60717;DHT22;46566;52.700;6.192;2023-02-28T18:41:28;5.30;99.90
60717;DHT22;46566;52.700;6.192;2023-02-28T18:43:54;5.30;99.90
60717;DHT22;46566;52.700;6.192;2023-02-28T18:46:20;5.20;99.90
60717;DHT22;46566;52.700;6.192;2023-02-28T18:48:46;5.20;99.90
60717;DHT22;46566;52.700;6.192;2023-02-28T18:51:16;5.20;99.90
60717;DHT22;46566;52.700;6.192;2023-02-28T18:53:42;5.10;99.90
60717;DHT22;46566;52.700;6.192;2023-02-28T18:56:10;5.10;99.90
60717;DHT22;46566;52.700;6.192;2023-02-28T18:58:37;5.00;99.90
60717;DHT22;46566;52.700;6.192;2023-02-28T19:01:10;5.00;99.90
60717;DHT22;46566;52.700;6.192;2023-02-28T19:03:38;4.90;99.90
60717;DHT22;46566;52.700;6.192;2023-02-28T19:06:03;4.90;99.90
60717;DHT22;46566;52.700;6.192;2023-02-28T19:08:29;4.90;99.90
60717;DHT22;46566;52.700;6.192;2023-02-28T19:10:55;4.80;99.90
60717;DHT22;46566;52.700;6.192;2023-02-28T19:13:20;4.80;99.90
60717;DHT22;46566;52.700;6.192;2023-02-28T19:15:47;4.70;99.90
60717;DHT22;46566;52.700;6.192;2023-02-28T19:18:13;4.70;99.90
60717;DHT22;46566;52.700;6.192;2023-02-28T19:20:39;4.60;99.90
60717;DHT22;46566;52.700;6.192;2023-02-28T19:23:05;4.60;99.90
60717;DHT22;46566;52.700;6.192;2023-02-28T19:25:30;4.50;99.90
60717;DHT22;46566;52.700;6.192;2023-02-28T19:27:56;4.50;99.90
60717;DHT22;46566;52.700;6.192;2023-02-28T19:30:22;4.50;99.90
60717;DHT22;46566;52.700;6.192;2023-02-28T19:32:48;4.50;99.90
60717;DHT22;46566;52.700;6.192;2023-02-28T19:35:14;4.50;99.90
60717;DHT22;46566;52.700;6.192;2023-02-28T19:37:40;4.50;99.90
60717;DHT22;46566;52.700;6.192;2023-02-28T19:40:08;4.40;99.90
60717;DHT22;46566;52.700;6.192;2023-02-28T19:42:34;4.40;99.90
60717;DHT22;46566;52.700;6.192;2023-02-28T19:45:01;4.40;99.90
60717;DHT22;46566;52.700;6.192;2023-02-28T19:47:28;4.40;99.90
60717;DHT22;46566;52.700;6.192;2023-02-28T19:49:55;4.30;99.90
60717;DHT22;46566;52.700;6.192;2023-02-28T19:52:22;4.30;99.90
60717;DHT22;46566;52.700;6.192;2023-02-28T19:54:48;4.30;99.90
60717;DHT22;46566;52.700;6.192;2023-02-28T19:57:14;4.20;99.90
60717;DHT22;46566;52.700;6.192;2023-02-28T19:59:39;4.20;99.90
60717;DHT22;46566;52.700;6.192;2023-02-28T20:02:14;4.20;99.90
60717;DHT22;46566;52.700;6.192;2023-02-28T20:04:40;4.10;99.90
60717;DHT22;46566;52.700;6.192;2023-02-28T20:07:05;4.10;99.90
60717;DHT22;46566;52.700;6.192;2023-02-28T20:09:31;4.10;99.90
60717;DHT22;46566;52.700;6.192;2023-02-28T20:11:57;4.10;99.90
60717;DHT22;46566;52.700;6.192;2023-02-28T20:14:24;4.10;99.90
60717;DHT22;46566;52.700;6.192;2023-02-28T20:16:50;4.00;99.90
60717;DHT22;46566;52.700;6.192;2023-02-28T20:19:16;4.00;99.90
60717;DHT22;46566;52.700;6.192;2023-02-28T20:21:43;3.90;99.90
60717;DHT22;46566;52.700;6.192;2023-02-28T20:24:10;3.80;99.90
60717;DHT22;46566;52.700;6.192;2023-02-28T20:26:36;3.80;99.90
60717;DHT22;46566;52.700;6.192;2023-02-28T20:29:06;3.80;99.90
60717;DHT22;46566;52.700;6.192;2023-02-28T20:31:32;3.80;99.90
60717;DHT22;46566;52.700;6.192;2023-02-28T20:33:59;3.60;99.90
60717;DHT22;46566;52.700;6.192;2023-02-28T20:36:25;3.60;99.90
60717;DHT22;46566;52.700;6.192;2023-02-28T20:38:51;3.50;99.90
60717;DHT22;46566;52.700;6.192;2023-02-28T20:41:17;3.40;99.90
60717;DHT22;46566;52.700;6.192;2023-02-28T20:43:44;3.40;99.90
60717;DHT22;46566;52.700;6.192;2023-02-28T20:46:10;3.40;99.90
60717;DHT22;46566;52.700;6.192;2023-02-28T20:48:38;3.30;99.90
60717;DHT22;46566;52.700;6.192;2023-02-28T20:51:05;3.30;99.90
60717;DHT22;46566;52.700;6.192;2023-02-28T20:53:31;3.30;99.90
60717;DHT22;46566;52.700;6.192;2023-02-28T20:56:10;3.30;99.90
60717;DHT22;46566;52.700;6.192;2023-02-28T20:58:38;3.30;99.90
60717;DHT22;46566;52.700;6.192;2023-02-28T21:01:12;3.30;99.90
60717;DHT22;46566;52.700;6.192;2023-02-28T21:03:42;3.20;99.90
60717;DHT22;46566;52.700;6.192;2023-02-28T21:06:09;3.20;99.90
60717;DHT22;46566;52.700;6.192;2023-02-28T21:08:36;3.20;99.90
60717;DHT22;46566;52.700;6.192;2023-02-28T21:11:10;3.20;99.90
60717;DHT22;46566;52.700;6.192;2023-02-28T21:13:36;3.20;99.90
60717;DHT22;46566;52.700;6.192;2023-02-28T21:16:04;3.10;99.90
60717;DHT22;46566;52.700;6.192;2023-02-28T21:18:31;3.10;99.90
60717;DHT22;46566;52.700;6.192;2023-02-28T21:21:05;3.10;99.90
60717;DHT22;46566;52.700;6.192;2023-02-28T21:23:31;3.10;99.90
60717;DHT22;46566;52.700;6.192;2023-02-28T21:26:02;3.00;99.90
60717;DHT22;46566;52.700;6.192;2023-02-28T21:28:30;3.00;99.90
60717;DHT22;46566;52.700;6.192;2023-02-28T21:31:07;3.00;99.90
60717;DHT22;46566;52.700;6.192;2023-02-28T21:33:33;2.90;99.90
60717;DHT22;46566;52.700;6.192;2023-02-28T21:36:04;2.90;99.90
60717;DHT22;46566;52.700;6.192;2023-02-28T21:38:31;2.90;99.90
60717;DHT22;46566;52.700;6.192;2023-02-28T21:41:09;2.90;99.90
60717;DHT22;46566;52.700;6.192;2023-02-28T21:43:35;2.90;99.90
60717;DHT22;46566;52.700;6.192;2023-02-28T21:46:05;2.80;99.90
60717;DHT22;46566;52.700;6.192;2023-02-28T21:48:32;2.80;99.90
60717;DHT22;46566;52.700;6.192;2023-02-28T21:51:00;2.80;99.90
60717;DHT22;46566;52.700;6.192;2023-02-28T21:53:34;2.80;99.90
60717;DHT22;46566;52.700;6.192;2023-02-28T21:56:01;2.70;99.90
60717;DHT22;46566;52.700;6.192;2023-02-28T21:58:27;2.70;99.90